SHARE
TWEET

testGPX

a guest Nov 28th, 2016 93 Never
Not a member of Pastebin yet? Sign Up, it unlocks many cool features!
  1. <?xml version="1.0" encoding="UTF-8"?>
  2. <gpx creator="Garmin Connect" version="1.1"
  3.  xsi:schemaLocation="http://www.topografix.com/GPX/1/1 http://www.topografix.com/GPX/11.xsd"
  4.  xmlns="http://www.topografix.com/GPX/1/1"
  5.  xmlns:ns3="http://www.garmin.com/xmlschemas/TrackPointExtension/v1"
  6.  xmlns:ns2="http://www.garmin.com/xmlschemas/GpxExtensions/v3" xmlns:xsi="http://www.w3.org/2001/XMLSchema-instance">
  7.   <metadata>
  8.     <link href="connect.garmin.com">
  9.       <text>Garmin Connect</text>
  10.     </link>
  11.     <time>2016-11-27T22:54:23.000Z</time>
  12.   </metadata>
  13.   <trk>
  14.     <name>Test Walking</name>
  15.     <type>walking</type>
  16.     <trkseg>
  17.       <trkpt lat="43.3013308309018611907958984375" lon="76.76678666658699512481689453125">
  18.         <ele>54.200000762939453125</ele>
  19.         <time>2016-11-27T22:56:58.000Z</time>
  20.         <extensions>
  21.           <ns3:TrackPointExtension>
  22.             <ns3:hr>111</ns3:hr>
  23.           </ns3:TrackPointExtension>
  24.         </extensions>
  25.       </trkpt>
  26.       <trkpt lat="43.30129017867147922515869140625" lon="76.76683829911053180694580078125">
  27.         <ele>53</ele>
  28.         <time>2016-11-27T22:57:02.000Z</time>
  29.         <extensions>
  30.           <ns3:TrackPointExtension>
  31.             <ns3:hr>114</ns3:hr>
  32.           </ns3:TrackPointExtension>
  33.         </extensions>
  34.       </trkpt>
  35.       <trkpt lat="43.30124139599502086639404296875" lon="76.766866378486156463623046875">
  36.         <ele>52</ele>
  37.         <time>2016-11-27T22:57:07.000Z</time>
  38.         <extensions>
  39.           <ns3:TrackPointExtension>
  40.             <ns3:hr>114</ns3:hr>
  41.           </ns3:TrackPointExtension>
  42.         </extensions>
  43.       </trkpt>
  44.       <trkpt lat="43.301176436245441436767578125" lon="76.7669044323265552520751953125">
  45.         <ele>50.799999237060546875</ele>
  46.         <time>2016-11-27T22:57:13.000Z</time>
  47.         <extensions>
  48.           <ns3:TrackPointExtension>
  49.             <ns3:hr>115</ns3:hr>
  50.           </ns3:TrackPointExtension>
  51.         </extensions>
  52.       </trkpt>
  53.       <trkpt lat="43.30110778845846652984619140625" lon="76.7669550590217113494873046875">
  54.         <ele>49.59999847412109375</ele>
  55.         <time>2016-11-27T22:57:19.000Z</time>
  56.         <extensions>
  57.           <ns3:TrackPointExtension>
  58.             <ns3:hr>115</ns3:hr>
  59.           </ns3:TrackPointExtension>
  60.         </extensions>
  61.       </trkpt>
  62.       <trkpt lat="43.301012150943279266357421875" lon="76.766948521137237548828125">
  63.         <ele>48.59999847412109375</ele>
  64.         <time>2016-11-27T22:57:22.000Z</time>
  65.         <extensions>
  66.           <ns3:TrackPointExtension>
  67.             <ns3:hr>118</ns3:hr>
  68.           </ns3:TrackPointExtension>
  69.         </extensions>
  70.       </trkpt>
  71.       <trkpt lat="43.3009248115122318267822265625" lon="76.766955561935901641845703125">
  72.         <ele>47.799999237060546875</ele>
  73.         <time>2016-11-27T22:57:28.000Z</time>
  74.         <extensions>
  75.           <ns3:TrackPointExtension>
  76.             <ns3:hr>113</ns3:hr>
  77.           </ns3:TrackPointExtension>
  78.         </extensions>
  79.       </trkpt>
  80.       <trkpt lat="43.30091735161840915679931640625" lon="76.7669540531933307647705078125">
  81.         <ele>47.799999237060546875</ele>
  82.         <time>2016-11-27T22:57:30.000Z</time>
  83.         <extensions>
  84.           <ns3:TrackPointExtension>
  85.             <ns3:hr>110</ns3:hr>
  86.           </ns3:TrackPointExtension>
  87.         </extensions>
  88.       </trkpt>
  89.       <trkpt lat="43.30090930499136447906494140625" lon="76.76695028133690357208251953125">
  90.         <ele>47.59999847412109375</ele>
  91.         <time>2016-11-27T22:57:32.000Z</time>
  92.         <extensions>
  93.           <ns3:TrackPointExtension>
  94.             <ns3:hr>111</ns3:hr>
  95.           </ns3:TrackPointExtension>
  96.         </extensions>
  97.       </trkpt>
  98.       <trkpt lat="43.3008795492351055145263671875" lon="76.7669222019612789154052734375">
  99.         <ele>46.40000152587890625</ele>
  100.         <time>2016-11-27T22:58:16.000Z</time>
  101.         <extensions>
  102.           <ns3:TrackPointExtension>
  103.             <ns3:hr>109</ns3:hr>
  104.           </ns3:TrackPointExtension>
  105.         </extensions>
  106.       </trkpt>
  107.       <trkpt lat="43.30079749040305614471435546875" lon="76.7670710645616054534912109375">
  108.         <ele>45</ele>
  109.         <time>2016-11-27T22:58:27.000Z</time>
  110.         <extensions>
  111.           <ns3:TrackPointExtension>
  112.             <ns3:hr>109</ns3:hr>
  113.           </ns3:TrackPointExtension>
  114.         </extensions>
  115.       </trkpt>
  116.       <trkpt lat="43.300764046609401702880859375" lon="76.76711909286677837371826171875">
  117.         <ele>43.799999237060546875</ele>
  118.         <time>2016-11-27T22:58:30.000Z</time>
  119.         <extensions>
  120.           <ns3:TrackPointExtension>
  121.             <ns3:hr>110</ns3:hr>
  122.           </ns3:TrackPointExtension>
  123.         </extensions>
  124.       </trkpt>
  125.       <trkpt lat="43.30074183456599712371826171875" lon="76.767141640186309814453125">
  126.         <ele>45.200000762939453125</ele>
  127.         <time>2016-11-27T22:58:32.000Z</time>
  128.         <extensions>
  129.           <ns3:TrackPointExtension>
  130.             <ns3:hr>110</ns3:hr>
  131.           </ns3:TrackPointExtension>
  132.         </extensions>
  133.       </trkpt>
  134.       <trkpt lat="43.30067679099738597869873046875" lon="76.76722302846610546112060546875">
  135.         <ele>44.200000762939453125</ele>
  136.         <time>2016-11-27T22:58:40.000Z</time>
  137.         <extensions>
  138.           <ns3:TrackPointExtension>
  139.             <ns3:hr>109</ns3:hr>
  140.           </ns3:TrackPointExtension>
  141.         </extensions>
  142.       </trkpt>
  143.       <trkpt lat="43.3006059639155864715576171875" lon="76.7672859765589237213134765625">
  144.         <ele>43</ele>
  145.         <time>2016-11-27T22:58:49.000Z</time>
  146.         <extensions>
  147.           <ns3:TrackPointExtension>
  148.             <ns3:hr>109</ns3:hr>
  149.           </ns3:TrackPointExtension>
  150.         </extensions>
  151.       </trkpt>
  152.       <trkpt lat="43.30056120455265045166015625" lon="76.76731338538229465484619140625">
  153.         <ele>42.799999237060546875</ele>
  154.         <time>2016-11-27T22:58:54.000Z</time>
  155.         <extensions>
  156.           <ns3:TrackPointExtension>
  157.             <ns3:hr>106</ns3:hr>
  158.           </ns3:TrackPointExtension>
  159.         </extensions>
  160.       </trkpt>
  161.       <trkpt lat="43.3004762120544910430908203125" lon="76.767442047595977783203125">
  162.         <ele>42</ele>
  163.         <time>2016-11-27T22:59:07.000Z</time>
  164.         <extensions>
  165.           <ns3:TrackPointExtension>
  166.             <ns3:hr>107</ns3:hr>
  167.           </ns3:TrackPointExtension>
  168.         </extensions>
  169.       </trkpt>
  170.       <trkpt lat="43.30043840967118740081787109375" lon="76.76750097237527370452880859375">
  171.         <ele>40.799999237060546875</ele>
  172.         <time>2016-11-27T22:59:13.000Z</time>
  173.         <extensions>
  174.           <ns3:TrackPointExtension>
  175.             <ns3:hr>106</ns3:hr>
  176.           </ns3:TrackPointExtension>
  177.         </extensions>
  178.       </trkpt>
  179.       <trkpt lat="43.30041024647653102874755859375" lon="76.76754489354789257049560546875">
  180.         <ele>39.59999847412109375</ele>
  181.         <time>2016-11-27T22:59:18.000Z</time>
  182.         <extensions>
  183.           <ns3:TrackPointExtension>
  184.             <ns3:hr>106</ns3:hr>
  185.           </ns3:TrackPointExtension>
  186.         </extensions>
  187.       </trkpt>
  188.       <trkpt lat="43.30038023926317691802978515625" lon="76.76758512668311595916748046875">
  189.         <ele>38.59999847412109375</ele>
  190.         <time>2016-11-27T22:59:23.000Z</time>
  191.         <extensions>
  192.           <ns3:TrackPointExtension>
  193.             <ns3:hr>107</ns3:hr>
  194.           </ns3:TrackPointExtension>
  195.         </extensions>
  196.       </trkpt>
  197.       <trkpt lat="43.30036431364715099334716796875" lon="76.767638184130191802978515625">
  198.         <ele>37.59999847412109375</ele>
  199.         <time>2016-11-27T22:59:29.000Z</time>
  200.         <extensions>
  201.           <ns3:TrackPointExtension>
  202.             <ns3:hr>108</ns3:hr>
  203.           </ns3:TrackPointExtension>
  204.         </extensions>
  205.       </trkpt>
  206.       <trkpt lat="43.30035073496401309967041015625" lon="76.76767833344638347625732421875">
  207.         <ele>36.40000152587890625</ele>
  208.         <time>2016-11-27T22:59:35.000Z</time>
  209.         <extensions>
  210.           <ns3:TrackPointExtension>
  211.             <ns3:hr>106</ns3:hr>
  212.           </ns3:TrackPointExtension>
  213.         </extensions>
  214.       </trkpt>
  215.       <trkpt lat="43.3003035448491573333740234375" lon="76.76779433898627758026123046875">
  216.         <ele>35.200000762939453125</ele>
  217.         <time>2016-11-27T22:59:46.000Z</time>
  218.         <extensions>
  219.           <ns3:TrackPointExtension>
  220.             <ns3:hr>106</ns3:hr>
  221.           </ns3:TrackPointExtension>
  222.         </extensions>
  223.       </trkpt>
  224.       <trkpt lat="43.30029206164181232452392578125" lon="76.7678150422871112823486328125">
  225.         <ele>34.40000152587890625</ele>
  226.         <time>2016-11-27T22:59:49.000Z</time>
  227.         <extensions>
  228.           <ns3:TrackPointExtension>
  229.             <ns3:hr>109</ns3:hr>
  230.           </ns3:TrackPointExtension>
  231.         </extensions>
  232.       </trkpt>
  233.       <trkpt lat="43.30028652958571910858154296875" lon="76.7678220830857753753662109375">
  234.         <ele>34.200000762939453125</ele>
  235.         <time>2016-11-27T22:59:50.000Z</time>
  236.         <extensions>
  237.           <ns3:TrackPointExtension>
  238.             <ns3:hr>109</ns3:hr>
  239.           </ns3:TrackPointExtension>
  240.         </extensions>
  241.       </trkpt>
  242.       <trkpt lat="43.3002882897853851318359375" lon="76.767876900732517242431640625">
  243.         <ele>33</ele>
  244.         <time>2016-11-27T22:59:54.000Z</time>
  245.         <extensions>
  246.           <ns3:TrackPointExtension>
  247.             <ns3:hr>108</ns3:hr>
  248.           </ns3:TrackPointExtension>
  249.         </extensions>
  250.       </trkpt>
  251.       <trkpt lat="43.30027848295867443084716796875" lon="76.76794672198593616485595703125">
  252.         <ele>31.799999237060546875</ele>
  253.         <time>2016-11-27T22:59:58.000Z</time>
  254.         <extensions>
  255.           <ns3:TrackPointExtension>
  256.             <ns3:hr>110</ns3:hr>
  257.           </ns3:TrackPointExtension>
  258.         </extensions>
  259.       </trkpt>
  260.       <trkpt lat="43.30024042911827564239501953125" lon="76.7680235840380191802978515625">
  261.         <ele>30.799999237060546875</ele>
  262.         <time>2016-11-27T23:00:03.000Z</time>
  263.         <extensions>
  264.           <ns3:TrackPointExtension>
  265.             <ns3:hr>107</ns3:hr>
  266.           </ns3:TrackPointExtension>
  267.         </extensions>
  268.       </trkpt>
  269.       <trkpt lat="43.300234310328960418701171875" lon="76.76803020574152469635009765625">
  270.         <ele>30.6000003814697265625</ele>
  271.         <time>2016-11-27T23:00:04.000Z</time>
  272.         <extensions>
  273.           <ns3:TrackPointExtension>
  274.             <ns3:hr>106</ns3:hr>
  275.           </ns3:TrackPointExtension>
  276.         </extensions>
  277.       </trkpt>
  278.       <trkpt lat="43.30018946714699268341064453125" lon="76.76807110942900180816650390625">
  279.         <ele>29.799999237060546875</ele>
  280.         <time>2016-11-27T23:00:09.000Z</time>
  281.         <extensions>
  282.           <ns3:TrackPointExtension>
  283.             <ns3:hr>103</ns3:hr>
  284.           </ns3:TrackPointExtension>
  285.         </extensions>
  286.       </trkpt>
  287.       <trkpt lat="43.3001783192157745361328125" lon="76.76808485575020313262939453125">
  288.         <ele>29.3999996185302734375</ele>
  289.         <time>2016-11-27T23:00:10.000Z</time>
  290.         <extensions>
  291.           <ns3:TrackPointExtension>
  292.             <ns3:hr>103</ns3:hr>
  293.           </ns3:TrackPointExtension>
  294.         </extensions>
  295.       </trkpt>
  296.       <trkpt lat="43.300082094967365264892578125" lon="76.76813883520662784576416015625">
  297.         <ele>28.3999996185302734375</ele>
  298.         <time>2016-11-27T23:00:19.000Z</time>
  299.         <extensions>
  300.           <ns3:TrackPointExtension>
  301.             <ns3:hr>104</ns3:hr>
  302.           </ns3:TrackPointExtension>
  303.         </extensions>
  304.       </trkpt>
  305.       <trkpt lat="43.2999476492404937744140625" lon="76.76822617463767528533935546875">
  306.         <ele>27.3999996185302734375</ele>
  307.         <time>2016-11-27T23:00:33.000Z</time>
  308.         <extensions>
  309.           <ns3:TrackPointExtension>
  310.             <ns3:hr>102</ns3:hr>
  311.           </ns3:TrackPointExtension>
  312.         </extensions>
  313.       </trkpt>
  314.       <trkpt lat="43.29989827983081340789794921875" lon="76.7682425193488597869873046875">
  315.         <ele>27.200000762939453125</ele>
  316.         <time>2016-11-27T23:00:37.000Z</time>
  317.         <extensions>
  318.           <ns3:TrackPointExtension>
  319.             <ns3:hr>106</ns3:hr>
  320.           </ns3:TrackPointExtension>
  321.         </extensions>
  322.       </trkpt>
  323.       <trkpt lat="43.29970700480043888092041015625" lon="76.76823799312114715576171875">
  324.         <ele>26.6000003814697265625</ele>
  325.         <time>2016-11-27T23:00:51.000Z</time>
  326.         <extensions>
  327.           <ns3:TrackPointExtension>
  328.             <ns3:hr>104</ns3:hr>
  329.           </ns3:TrackPointExtension>
  330.         </extensions>
  331.       </trkpt>
  332.       <trkpt lat="43.2996480800211429595947265625" lon="76.7682374902069568634033203125">
  333.         <ele>26.3999996185302734375</ele>
  334.         <time>2016-11-27T23:00:55.000Z</time>
  335.         <extensions>
  336.           <ns3:TrackPointExtension>
  337.             <ns3:hr>100</ns3:hr>
  338.           </ns3:TrackPointExtension>
  339.         </extensions>
  340.       </trkpt>
  341.       <trkpt lat="43.2996085174381732940673828125" lon="76.76824159733951091766357421875">
  342.         <ele>26.200000762939453125</ele>
  343.         <time>2016-11-27T23:00:59.000Z</time>
  344.         <extensions>
  345.           <ns3:TrackPointExtension>
  346.             <ns3:hr>102</ns3:hr>
  347.           </ns3:TrackPointExtension>
  348.         </extensions>
  349.       </trkpt>
  350.       <trkpt lat="43.2995381094515323638916015625" lon="76.76825584657490253448486328125">
  351.         <ele>25.200000762939453125</ele>
  352.         <time>2016-11-27T23:01:06.000Z</time>
  353.         <extensions>
  354.           <ns3:TrackPointExtension>
  355.             <ns3:hr>102</ns3:hr>
  356.           </ns3:TrackPointExtension>
  357.         </extensions>
  358.       </trkpt>
  359.       <trkpt lat="43.29942252300679683685302734375" lon="76.76828702725470066070556640625">
  360.         <ele>24</ele>
  361.         <time>2016-11-27T23:01:16.000Z</time>
  362.         <extensions>
  363.           <ns3:TrackPointExtension>
  364.             <ns3:hr>103</ns3:hr>
  365.           </ns3:TrackPointExtension>
  366.         </extensions>
  367.       </trkpt>
  368.       <trkpt lat="43.29935446195304393768310546875" lon="76.7682733647525310516357421875">
  369.         <ele>22.799999237060546875</ele>
  370.         <time>2016-11-27T23:01:25.000Z</time>
  371.         <extensions>
  372.           <ns3:TrackPointExtension>
  373.             <ns3:hr>103</ns3:hr>
  374.           </ns3:TrackPointExtension>
  375.         </extensions>
  376.       </trkpt>
  377.       <trkpt lat="43.29933652468025684356689453125" lon="76.7682748734951019287109375">
  378.         <ele>22</ele>
  379.         <time>2016-11-27T23:01:28.000Z</time>
  380.         <extensions>
  381.           <ns3:TrackPointExtension>
  382.             <ns3:hr>106</ns3:hr>
  383.           </ns3:TrackPointExtension>
  384.         </extensions>
  385.       </trkpt>
  386.       <trkpt lat="43.29932143725454807281494140625" lon="76.76826925761997699737548828125">
  387.         <ele>21.6000003814697265625</ele>
  388.         <time>2016-11-27T23:01:30.000Z</time>
  389.         <extensions>
  390.           <ns3:TrackPointExtension>
  391.             <ns3:hr>108</ns3:hr>
  392.           </ns3:TrackPointExtension>
  393.         </extensions>
  394.       </trkpt>
  395.       <trkpt lat="43.2992581538856029510498046875" lon="76.7682559303939342498779296875">
  396.         <ele>20.3999996185302734375</ele>
  397.         <time>2016-11-27T23:01:39.000Z</time>
  398.         <extensions>
  399.           <ns3:TrackPointExtension>
  400.             <ns3:hr>110</ns3:hr>
  401.           </ns3:TrackPointExtension>
  402.         </extensions>
  403.       </trkpt>
  404.       <trkpt lat="43.29923292435705661773681640625" lon="76.768254756927490234375">
  405.         <ele>19.200000762939453125</ele>
  406.         <time>2016-11-27T23:01:42.000Z</time>
  407.         <extensions>
  408.           <ns3:TrackPointExtension>
  409.             <ns3:hr>110</ns3:hr>
  410.           </ns3:TrackPointExtension>
  411.         </extensions>
  412.       </trkpt>
  413.       <trkpt lat="43.2992122210562229156494140625" lon="76.768261797726154327392578125">
  414.         <ele>18.6000003814697265625</ele>
  415.         <time>2016-11-27T23:01:45.000Z</time>
  416.         <extensions>
  417.           <ns3:TrackPointExtension>
  418.             <ns3:hr>107</ns3:hr>
  419.           </ns3:TrackPointExtension>
  420.         </extensions>
  421.       </trkpt>
  422.       <trkpt lat="43.29919269122183322906494140625" lon="76.7682545892894268035888671875">
  423.         <ele>18</ele>
  424.         <time>2016-11-27T23:01:49.000Z</time>
  425.         <extensions>
  426.           <ns3:TrackPointExtension>
  427.             <ns3:hr>108</ns3:hr>
  428.           </ns3:TrackPointExtension>
  429.         </extensions>
  430.       </trkpt>
  431.       <trkpt lat="43.29914776422083377838134765625" lon="76.76827730424702167510986328125">
  432.         <ele>17</ele>
  433.         <time>2016-11-27T23:01:57.000Z</time>
  434.         <extensions>
  435.           <ns3:TrackPointExtension>
  436.             <ns3:hr>109</ns3:hr>
  437.           </ns3:TrackPointExtension>
  438.         </extensions>
  439.       </trkpt>
  440.       <trkpt lat="43.29898783750832080841064453125" lon="76.76831569336354732513427734375">
  441.         <ele>15.80000019073486328125</ele>
  442.         <time>2016-11-27T23:02:10.000Z</time>
  443.         <extensions>
  444.           <ns3:TrackPointExtension>
  445.             <ns3:hr>107</ns3:hr>
  446.           </ns3:TrackPointExtension>
  447.         </extensions>
  448.       </trkpt>
  449.       <trkpt lat="43.29894249141216278076171875" lon="76.76833949796855449676513671875">
  450.         <ele>14.80000019073486328125</ele>
  451.         <time>2016-11-27T23:02:14.000Z</time>
  452.         <extensions>
  453.           <ns3:TrackPointExtension>
  454.             <ns3:hr>106</ns3:hr>
  455.           </ns3:TrackPointExtension>
  456.         </extensions>
  457.       </trkpt>
  458.       <trkpt lat="43.29888524301350116729736328125" lon="76.768364392220973968505859375">
  459.         <ele>13.6000003814697265625</ele>
  460.         <time>2016-11-27T23:02:20.000Z</time>
  461.         <extensions>
  462.           <ns3:TrackPointExtension>
  463.             <ns3:hr>106</ns3:hr>
  464.           </ns3:TrackPointExtension>
  465.         </extensions>
  466.       </trkpt>
  467.       <trkpt lat="43.2988373823463916778564453125" lon="76.76838123984634876251220703125">
  468.         <ele>12.6000003814697265625</ele>
  469.         <time>2016-11-27T23:02:25.000Z</time>
  470.         <extensions>
  471.           <ns3:TrackPointExtension>
  472.             <ns3:hr>106</ns3:hr>
  473.           </ns3:TrackPointExtension>
  474.         </extensions>
  475.       </trkpt>
  476.       <trkpt lat="43.2987961433827877044677734375" lon="76.76839356124401092529296875">
  477.         <ele>11.3999996185302734375</ele>
  478.         <time>2016-11-27T23:02:31.000Z</time>
  479.         <extensions>
  480.           <ns3:TrackPointExtension>
  481.             <ns3:hr>106</ns3:hr>
  482.           </ns3:TrackPointExtension>
  483.         </extensions>
  484.       </trkpt>
  485.       <trkpt lat="43.29875800572335720062255859375" lon="76.76837034337222576141357421875">
  486.         <ele>10.19999980926513671875</ele>
  487.         <time>2016-11-27T23:02:36.000Z</time>
  488.         <extensions>
  489.           <ns3:TrackPointExtension>
  490.             <ns3:hr>105</ns3:hr>
  491.           </ns3:TrackPointExtension>
  492.         </extensions>
  493.       </trkpt>
  494.       <trkpt lat="43.29871224053204059600830078125" lon="76.76835508830845355987548828125">
  495.         <ele>9.19999980926513671875</ele>
  496.         <time>2016-11-27T23:02:43.000Z</time>
  497.         <extensions>
  498.           <ns3:TrackPointExtension>
  499.             <ns3:hr>106</ns3:hr>
  500.           </ns3:TrackPointExtension>
  501.         </extensions>
  502.       </trkpt>
  503.       <trkpt lat="43.298652477562427520751953125" lon="76.76836405694484710693359375">
  504.         <ele>8.19999980926513671875</ele>
  505.         <time>2016-11-27T23:02:56.000Z</time>
  506.         <extensions>
  507.           <ns3:TrackPointExtension>
  508.             <ns3:hr>106</ns3:hr>
  509.           </ns3:TrackPointExtension>
  510.         </extensions>
  511.       </trkpt>
  512.       <trkpt lat="43.29856027662754058837890625" lon="76.7684047929942607879638671875">
  513.         <ele>7</ele>
  514.         <time>2016-11-27T23:03:06.000Z</time>
  515.         <extensions>
  516.           <ns3:TrackPointExtension>
  517.             <ns3:hr>106</ns3:hr>
  518.           </ns3:TrackPointExtension>
  519.         </extensions>
  520.       </trkpt>
  521.       <trkpt lat="43.29844418726861476898193359375" lon="76.768458940088748931884765625">
  522.         <ele>5.80000019073486328125</ele>
  523.         <time>2016-11-27T23:03:16.000Z</time>
  524.         <extensions>
  525.           <ns3:TrackPointExtension>
  526.             <ns3:hr>105</ns3:hr>
  527.           </ns3:TrackPointExtension>
  528.         </extensions>
  529.       </trkpt>
  530.       <trkpt lat="43.29833136685192584991455078125" lon="76.76846070028841495513916015625">
  531.         <ele>4.80000019073486328125</ele>
  532.         <time>2016-11-27T23:03:26.000Z</time>
  533.         <extensions>
  534.           <ns3:TrackPointExtension>
  535.             <ns3:hr>107</ns3:hr>
  536.           </ns3:TrackPointExtension>
  537.         </extensions>
  538.       </trkpt>
  539.       <trkpt lat="43.2983113341033458709716796875" lon="76.76844427175819873809814453125">
  540.         <ele>4.599999904632568359375</ele>
  541.         <time>2016-11-27T23:03:32.000Z</time>
  542.         <extensions>
  543.           <ns3:TrackPointExtension>
  544.             <ns3:hr>110</ns3:hr>
  545.           </ns3:TrackPointExtension>
  546.         </extensions>
  547.       </trkpt>
  548.       <trkpt lat="43.29830588586628437042236328125" lon="76.768428094685077667236328125">
  549.         <ele>4.599999904632568359375</ele>
  550.         <time>2016-11-27T23:03:36.000Z</time>
  551.         <extensions>
  552.           <ns3:TrackPointExtension>
  553.             <ns3:hr>107</ns3:hr>
  554.           </ns3:TrackPointExtension>
  555.         </extensions>
  556.       </trkpt>
  557.       <trkpt lat="43.29823598079383373260498046875" lon="76.76850043050944805145263671875">
  558.         <ele>4.400000095367431640625</ele>
  559.         <time>2016-11-27T23:03:52.000Z</time>
  560.         <extensions>
  561.           <ns3:TrackPointExtension>
  562.             <ns3:hr>106</ns3:hr>
  563.           </ns3:TrackPointExtension>
  564.         </extensions>
  565.       </trkpt>
  566.       <trkpt lat="43.29813238047063350677490234375" lon="76.768568910658359527587890625">
  567.         <ele>3.7999999523162841796875</ele>
  568.         <time>2016-11-27T23:04:01.000Z</time>
  569.         <extensions>
  570.           <ns3:TrackPointExtension>
  571.             <ns3:hr>105</ns3:hr>
  572.           </ns3:TrackPointExtension>
  573.         </extensions>
  574.       </trkpt>
  575.       <trkpt lat="43.2980397604405879974365234375" lon="76.7686046175658702850341796875">
  576.         <ele>3.2000000476837158203125</ele>
  577.         <time>2016-11-27T23:04:09.000Z</time>
  578.         <extensions>
  579.           <ns3:TrackPointExtension>
  580.             <ns3:hr>108</ns3:hr>
  581.           </ns3:TrackPointExtension>
  582.         </extensions>
  583.       </trkpt>
  584.       <trkpt lat="43.298016794025897979736328125" lon="76.76860956288874149322509765625">
  585.         <ele>2.7999999523162841796875</ele>
  586.         <time>2016-11-27T23:04:11.000Z</time>
  587.         <extensions>
  588.           <ns3:TrackPointExtension>
  589.             <ns3:hr>108</ns3:hr>
  590.           </ns3:TrackPointExtension>
  591.         </extensions>
  592.       </trkpt>
  593.       <trkpt lat="43.2978573702275753021240234375" lon="76.7687393985688686370849609375">
  594.         <ele>2</ele>
  595.         <time>2016-11-27T23:04:24.000Z</time>
  596.         <extensions>
  597.           <ns3:TrackPointExtension>
  598.             <ns3:hr>107</ns3:hr>
  599.           </ns3:TrackPointExtension>
  600.         </extensions>
  601.       </trkpt>
  602.       <trkpt lat="43.29783180542290210723876953125" lon="76.76876613683998584747314453125">
  603.         <ele>1.7999999523162841796875</ele>
  604.         <time>2016-11-27T23:04:26.000Z</time>
  605.         <extensions>
  606.           <ns3:TrackPointExtension>
  607.             <ns3:hr>107</ns3:hr>
  608.           </ns3:TrackPointExtension>
  609.         </extensions>
  610.       </trkpt>
  611.     </trkseg>
  612.   </trk>
  613. </gpx>
RAW Paste Data
We use cookies for various purposes including analytics. By continuing to use Pastebin, you agree to our use of cookies as described in the Cookies Policy. OK, I Understand
 
Top